sensor_id;sensor_type;location;lat;lon;timestamp;P1;durP1;ratioP1;P2;durP2;ratioP2
18076;SDS011;9165;45.714;11.362;2023-08-08T00:01:02;0.30;;;0.30;;
18076;SDS011;9165;45.714;11.362;2023-08-08T00:03:29;0.83;;;0.83;;
18076;SDS011;9165;45.714;11.362;2023-08-08T00:05:56;0.40;;;0.40;;
18076;SDS011;9165;45.714;11.362;2023-08-08T00:08:22;0.83;;;0.50;;
18076;SDS011;9165;45.714;11.362;2023-08-08T00:10:49;0.47;;;0.47;;
18076;SDS011;9165;45.714;11.362;2023-08-08T00:13:15;0.70;;;0.50;;
18076;SDS011;9165;45.714;11.362;2023-08-08T00:15:42;0.47;;;0.47;;
18076;SDS011;9165;45.714;11.362;2023-08-08T00:18:10;0.33;;;0.33;;
18076;SDS011;9165;45.714;11.362;2023-08-08T00:20:37;0.43;;;0.33;;
18076;SDS011;9165;45.714;11.362;2023-08-08T00:23:03;0.30;;;0.30;;
18076;SDS011;9165;45.714;11.362;2023-08-08T00:25:30;1.17;;;0.50;;
18076;SDS011;9165;45.714;11.362;2023-08-08T00:27:57;0.40;;;0.40;;
18076;SDS011;9165;45.714;11.362;2023-08-08T00:30:23;0.17;;;0.17;;
18076;SDS011;9165;45.714;11.362;2023-08-08T00:32:50;0.43;;;0.43;;
18076;SDS011;9165;45.714;11.362;2023-08-08T00:35:18;0.43;;;0.43;;
18076;SDS011;9165;45.714;11.362;2023-08-08T00:37:45;0.50;;;0.40;;
18076;SDS011;9165;45.714;11.362;2023-08-08T00:40:11;2.03;;;0.60;;
18076;SDS011;9165;45.714;11.362;2023-08-08T00:42:38;0.37;;;0.30;;
18076;SDS011;9165;45.714;11.362;2023-08-08T00:45:05;1.53;;;0.60;;
18076;SDS011;9165;45.714;11.362;2023-08-08T00:47:32;0.50;;;0.50;;
18076;SDS011;9165;45.714;11.362;2023-08-08T00:49:59;0.50;;;0.33;;
18076;SDS011;9165;45.714;11.362;2023-08-08T00:52:27;1.23;;;0.40;;
18076;SDS011;9165;45.714;11.362;2023-08-08T00:54:54;0.93;;;0.40;;
18076;SDS011;9165;45.714;11.362;2023-08-08T00:57:21;0.30;;;0.30;;
18076;SDS011;9165;45.714;11.362;2023-08-08T00:59:48;0.73;;;0.40;;
18076;SDS011;9165;45.714;11.362;2023-08-08T01:02:15;0.93;;;0.60;;
18076;SDS011;9165;45.714;11.362;2023-08-08T01:04:42;0.50;;;0.40;;
18076;SDS011;9165;45.714;11.362;2023-08-08T01:07:10;0.30;;;0.27;;
18076;SDS011;9165;45.714;11.362;2023-08-08T01:09:41;0.20;;;0.20;;
18076;SDS011;9165;45.714;11.362;2023-08-08T01:12:08;2.33;;;0.60;;
18076;SDS011;9165;45.714;11.362;2023-08-08T01:14:37;0.20;;;0.20;;
18076;SDS011;9165;45.714;11.362;2023-08-08T01:17:04;0.20;;;0.20;;
18076;SDS011;9165;45.714;11.362;2023-08-08T01:19:31;2.00;;;0.30;;
18076;SDS011;9165;45.714;11.362;2023-08-08T01:22:01;0.40;;;0.40;;
18076;SDS011;9165;45.714;11.362;2023-08-08T01:24:29;1.47;;;0.37;;
18076;SDS011;9165;45.714;11.362;2023-08-08T01:26:58;0.27;;;0.27;;
18076;SDS011;9165;45.714;11.362;2023-08-08T01:29:24;0.30;;;0.20;;
18076;SDS011;9165;45.714;11.362;2023-08-08T01:31:51;2.53;;;0.33;;
18076;SDS011;9165;45.714;11.362;2023-08-08T01:34:18;0.43;;;0.40;;
18076;SDS011;9165;45.714;11.362;2023-08-08T01:36:46;0.73;;;0.50;;
18076;SDS011;9165;45.714;11.362;2023-08-08T01:39:16;0.33;;;0.30;;
18076;SDS011;9165;45.714;11.362;2023-08-08T01:41:45;0.57;;;0.30;;
18076;SDS011;9165;45.714;11.362;2023-08-08T01:44:13;0.60;;;0.47;;
18076;SDS011;9165;45.714;11.362;2023-08-08T01:46:40;0.27;;;0.27;;
18076;SDS011;9165;45.714;11.362;2023-08-08T01:49:06;0.30;;;0.30;;
18076;SDS011;9165;45.714;11.362;2023-08-08T01:51:33;0.60;;;0.60;;
18076;SDS011;9165;45.714;11.362;2023-08-08T01:54:00;0.93;;;0.77;;
18076;SDS011;9165;45.714;11.362;2023-08-08T01:56:26;0.47;;;0.47;;
18076;SDS011;9165;45.714;11.362;2023-08-08T01:58:54;0.50;;;0.50;;
18076;SDS011;9165;45.714;11.362;2023-08-08T02:01:21;3.80;;;0.40;;
18076;SDS011;9165;45.714;11.362;2023-08-08T02:03:48;0.57;;;0.40;;
18076;SDS011;9165;45.714;11.362;2023-08-08T02:06:14;0.30;;;0.30;;
18076;SDS011;9165;45.714;11.362;2023-08-08T02:08:41;0.93;;;0.40;;
18076;SDS011;9165;45.714;11.362;2023-08-08T02:11:08;0.40;;;0.40;;
18076;SDS011;9165;45.714;11.362;2023-08-08T02:13:35;0.37;;;0.37;;
18076;SDS011;9165;45.714;11.362;2023-08-08T02:16:03;0.47;;;0.33;;
18076;SDS011;9165;45.714;11.362;2023-08-08T02:18:30;0.40;;;0.40;;
18076;SDS011;9165;45.714;11.362;2023-08-08T02:20:56;3.60;;;1.17;;
18076;SDS011;9165;45.714;11.362;2023-08-08T02:23:23;0.90;;;0.50;;
18076;SDS011;9165;45.714;11.362;2023-08-08T02:25:49;0.53;;;0.50;;
18076;SDS011;9165;45.714;11.362;2023-08-08T02:28:16;1.07;;;0.50;;
18076;SDS011;9165;45.714;11.362;2023-08-08T02:30:43;0.77;;;0.50;;
18076;SDS011;9165;45.714;11.362;2023-08-08T02:33:12;0.63;;;0.50;;
18076;SDS011;9165;45.714;11.362;2023-08-08T02:35:39;0.90;;;0.50;;
18076;SDS011;9165;45.714;11.362;2023-08-08T02:38:05;0.40;;;0.40;;
18076;SDS011;9165;45.714;11.362;2023-08-08T02:40:32;0.40;;;0.40;;
18076;SDS011;9165;45.714;11.362;2023-08-08T02:42:59;0.47;;;0.47;;
18076;SDS011;9165;45.714;11.362;2023-08-08T02:45:26;1.83;;;0.50;;
18076;SDS011;9165;45.714;11.362;2023-08-08T02:47:52;0.30;;;0.30;;
18076;SDS011;9165;45.714;11.362;2023-08-08T02:50:20;0.30;;;0.30;;
18076;SDS011;9165;45.714;11.362;2023-08-08T02:52:47;0.40;;;0.40;;
18076;SDS011;9165;45.714;11.362;2023-08-08T02:55:14;0.27;;;0.27;;
18076;SDS011;9165;45.714;11.362;2023-08-08T02:57:41;0.50;;;0.50;;
18076;SDS011;9165;45.714;11.362;2023-08-08T03:00:08;0.40;;;0.40;;
18076;SDS011;9165;45.714;11.362;2023-08-08T03:02:36;0.30;;;0.30;;
18076;SDS011;9165;45.714;11.362;2023-08-08T03:05:02;0.30;;;0.30;;
18076;SDS011;9165;45.714;11.362;2023-08-08T03:07:31;1.97;;;0.43;;
18076;SDS011;9165;45.714;11.362;2023-08-08T03:09:57;0.20;;;0.20;;
18076;SDS011;9165;45.714;11.362;2023-08-08T03:12:24;0.23;;;0.23;;
18076;SDS011;9165;45.714;11.362;2023-08-08T03:14:51;0.60;;;0.50;;
18076;SDS011;9165;45.714;11.362;2023-08-08T03:19:51;0.20;;;0.20;;
18076;SDS011;9165;45.714;11.362;2023-08-08T03:22:18;0.20;;;0.20;;
18076;SDS011;9165;45.714;11.362;2023-08-08T03:24:46;0.30;;;0.27;;
18076;SDS011;9165;45.714;11.362;2023-08-08T03:27:13;0.40;;;0.40;;
18076;SDS011;9165;45.714;11.362;2023-08-08T03:29:40;0.53;;;0.47;;
18076;SDS011;9165;45.714;11.362;2023-08-08T03:32:07;0.50;;;0.50;;
18076;SDS011;9165;45.714;11.362;2023-08-08T03:34:33;0.40;;;0.40;;
18076;SDS011;9165;45.714;11.362;2023-08-08T03:37:00;2.50;;;0.53;;
18076;SDS011;9165;45.714;11.362;2023-08-08T03:39:26;0.57;;;0.57;;
18076;SDS011;9165;45.714;11.362;2023-08-08T03:41:54;0.40;;;0.40;;
18076;SDS011;9165;45.714;11.362;2023-08-08T03:44:21;0.60;;;0.60;;
18076;SDS011;9165;45.714;11.362;2023-08-08T03:46:47;0.53;;;0.50;;
18076;SDS011;9165;45.714;11.362;2023-08-08T03:49:14;0.40;;;0.40;;
18076;SDS011;9165;45.714;11.362;2023-08-08T03:51:41;0.70;;;0.60;;
18076;SDS011;9165;45.714;11.362;2023-08-08T03:54:08;0.57;;;0.57;;
18076;SDS011;9165;45.714;11.362;2023-08-08T03:56:35;0.60;;;0.50;;
18076;SDS011;9165;45.714;11.362;2023-08-08T03:59:04;1.70;;;0.50;;
18076;SDS011;9165;45.714;11.362;2023-08-08T04:01:30;1.03;;;0.93;;
18076;SDS011;9165;45.714;11.362;2023-08-08T04:03:57;0.30;;;0.30;;
18076;SDS011;9165;45.714;11.362;2023-08-08T04:06:24;1.80;;;0.53;;
18076;SDS011;9165;45.714;11.362;2023-08-08T04:08:51;0.20;;;0.20;;
18076;SDS011;9165;45.714;11.362;2023-08-08T04:11:17;0.43;;;0.43;;
18076;SDS011;9165;45.714;11.362;2023-08-08T04:13:44;0.77;;;0.50;;
18076;SDS011;9165;45.714;11.362;2023-08-08T04:16:12;0.60;;;0.50;;
18076;SDS011;9165;45.714;11.362;2023-08-08T04:18:39;0.50;;;0.50;;
18076;SDS011;9165;45.714;11.362;2023-08-08T04:21:06;0.67;;;0.50;;
18076;SDS011;9165;45.714;11.362;2023-08-08T04:23:33;1.60;;;0.63;;
18076;SDS011;9165;45.714;11.362;2023-08-08T04:26:00;2.57;;;1.40;;
18076;SDS011;9165;45.714;11.362;2023-08-08T04:28:27;13.27;;;6.73;;
18076;SDS011;9165;45.714;11.362;2023-08-08T04:30:53;23.07;;;10.67;;
18076;SDS011;9165;45.714;11.362;2023-08-08T04:33:21;27.00;;;11.47;;
18076;SDS011;9165;45.714;11.362;2023-08-08T04:35:48;31.23;;;12.93;;
18076;SDS011;9165;45.714;11.362;2023-08-08T04:38:15;36.50;;;13.70;;
18076;SDS011;9165;45.714;11.362;2023-08-08T04:40:41;30.00;;;12.53;;
18076;SDS011;9165;45.714;11.362;2023-08-08T04:43:08;27.63;;;11.23;;
18076;SDS011;9165;45.714;11.362;2023-08-08T04:45:34;24.63;;;10.00;;
18076;SDS011;9165;45.714;11.362;2023-08-08T04:48:01;22.47;;;7.97;;
18076;SDS011;9165;45.714;11.362;2023-08-08T04:50:29;19.53;;;7.00;;
18076;SDS011;9165;45.714;11.362;2023-08-08T04:52:56;8.30;;;4.37;;
18076;SDS011;9165;45.714;11.362;2023-08-08T04:55:22;6.97;;;2.20;;
18076;SDS011;9165;45.714;11.362;2023-08-08T04:57:49;5.77;;;2.40;;
18076;SDS011;9165;45.714;11.362;2023-08-08T05:00:16;2.77;;;1.67;;
18076;SDS011;9165;45.714;11.362;2023-08-08T05:02:42;3.53;;;1.53;;
18076;SDS011;9165;45.714;11.362;2023-08-08T05:05:09;1.73;;;1.07;;
18076;SDS011;9165;45.714;11.362;2023-08-08T05:07:37;2.00;;;0.90;;
18076;SDS011;9165;45.714;11.362;2023-08-08T05:10:04;2.13;;;1.10;;
18076;SDS011;9165;45.714;11.362;2023-08-08T05:12:31;1.10;;;0.70;;
18076;SDS011;9165;45.714;11.362;2023-08-08T05:14:58;1.37;;;0.83;;
18076;SDS011;9165;45.714;11.362;2023-08-08T05:17:25;1.23;;;0.80;;
18076;SDS011;9165;45.714;11.362;2023-08-08T05:20:10;1.27;;;0.60;;
18076;SDS011;9165;45.714;11.362;2023-08-08T05:22:37;0.50;;;0.50;;
18076;SDS011;9165;45.714;11.362;2023-08-08T05:25:04;0.60;;;0.60;;
18076;SDS011;9165;45.714;11.362;2023-08-08T05:27:31;1.03;;;0.73;;
18076;SDS011;9165;45.714;11.362;2023-08-08T05:29:58;0.50;;;0.50;;
18076;SDS011;9165;45.714;11.362;2023-08-08T05:32:25;1.17;;;0.80;;
18076;SDS011;9165;45.714;11.362;2023-08-08T05:34:52;0.77;;;0.67;;
18076;SDS011;9165;45.714;11.362;2023-08-08T05:37:20;2.00;;;0.70;;
18076;SDS011;9165;45.714;11.362;2023-08-08T05:39:46;0.63;;;0.63;;
18076;SDS011;9165;45.714;11.362;2023-08-08T05:42:13;1.33;;;0.63;;
18076;SDS011;9165;45.714;11.362;2023-08-08T05:44:40;0.83;;;0.80;;
18076;SDS011;9165;45.714;11.362;2023-08-08T05:47:07;0.70;;;0.60;;
18076;SDS011;9165;45.714;11.362;2023-08-08T05:49:34;4.50;;;0.80;;
18076;SDS011;9165;45.714;11.362;2023-08-08T05:52:03;1.37;;;0.70;;
18076;SDS011;9165;45.714;11.362;2023-08-08T05:54:31;1.50;;;0.80;;
18076;SDS011;9165;45.714;11.362;2023-08-08T05:56:58;1.47;;;0.87;;
18076;SDS011;9165;45.714;11.362;2023-08-08T05:59:25;0.80;;;0.60;;
18076;SDS011;9165;45.714;11.362;2023-08-08T06:01:51;0.50;;;0.50;;
18076;SDS011;9165;45.714;11.362;2023-08-08T06:04:18;1.47;;;0.70;;
18076;SDS011;9165;45.714;11.362;2023-08-08T06:06:45;0.43;;;0.40;;
18076;SDS011;9165;45.714;11.362;2023-08-08T06:09:14;0.53;;;0.53;;
18076;SDS011;9165;45.714;11.362;2023-08-08T06:11:42;1.03;;;0.60;;
18076;SDS011;9165;45.714;11.362;2023-08-08T06:14:08;0.70;;;0.53;;
18076;SDS011;9165;45.714;11.362;2023-08-08T06:16:35;0.60;;;0.60;;
18076;SDS011;9165;45.714;11.362;2023-08-08T06:19:02;0.50;;;0.50;;
18076;SDS011;9165;45.714;11.362;2023-08-08T06:21:28;1.97;;;0.57;;
18076;SDS011;9165;45.714;11.362;2023-08-08T06:23:55;0.60;;;0.57;;
18076;SDS011;9165;45.714;11.362;2023-08-08T06:26:22;0.90;;;0.60;;
18076;SDS011;9165;45.714;11.362;2023-08-08T06:28:50;1.70;;;0.60;;
18076;SDS011;9165;45.714;11.362;2023-08-08T06:31:17;2.00;;;0.80;;
18076;SDS011;9165;45.714;11.362;2023-08-08T06:33:44;0.63;;;0.63;;
18076;SDS011;9165;45.714;11.362;2023-08-08T06:36:11;2.60;;;0.80;;
18076;SDS011;9165;45.714;11.362;2023-08-08T06:38:37;2.20;;;0.50;;
18076;SDS011;9165;45.714;11.362;2023-08-08T06:41:04;0.83;;;0.73;;
18076;SDS011;9165;45.714;11.362;2023-08-08T06:43:31;0.77;;;0.77;;
18076;SDS011;9165;45.714;11.362;2023-08-08T06:45:59;1.17;;;0.90;;
18076;SDS011;9165;45.714;11.362;2023-08-08T06:48:27;1.90;;;0.80;;
18076;SDS011;9165;45.714;11.362;2023-08-08T06:50:53;0.70;;;0.57;;
18076;SDS011;9165;45.714;11.362;2023-08-08T06:53:20;0.60;;;0.57;;
18076;SDS011;9165;45.714;11.362;2023-08-08T06:55:47;0.50;;;0.40;;
18076;SDS011;9165;45.714;11.362;2023-08-08T06:58:13;0.93;;;0.83;;
18076;SDS011;9165;45.714;11.362;2023-08-08T07:00:40;0.47;;;0.40;;
18076;SDS011;9165;45.714;11.362;2023-08-08T07:03:08;0.93;;;0.90;;
18076;SDS011;9165;45.714;11.362;2023-08-08T07:05:34;2.80;;;0.70;;
18076;SDS011;9165;45.714;11.362;2023-08-08T07:08:01;1.23;;;0.90;;
18076;SDS011;9165;45.714;11.362;2023-08-08T07:10:27;1.07;;;0.80;;
18076;SDS011;9165;45.714;11.362;2023-08-08T07:12:54;1.13;;;0.87;;
18076;SDS011;9165;45.714;11.362;2023-08-08T07:15:21;0.70;;;0.70;;
18076;SDS011;9165;45.714;11.362;2023-08-08T07:17:49;1.07;;;0.60;;
18076;SDS011;9165;45.714;11.362;2023-08-08T07:20:17;2.23;;;1.07;;
18076;SDS011;9165;45.714;11.362;2023-08-08T07:22:44;0.97;;;0.80;;
18076;SDS011;9165;45.714;11.362;2023-08-08T07:25:11;2.23;;;0.90;;
18076;SDS011;9165;45.714;11.362;2023-08-08T07:27:37;1.40;;;0.73;;
18076;SDS011;9165;45.714;11.362;2023-08-08T07:30:05;0.87;;;0.77;;
18076;SDS011;9165;45.714;11.362;2023-08-08T07:32:32;0.70;;;0.70;;
18076;SDS011;9165;45.714;11.362;2023-08-08T07:34:59;1.70;;;0.80;;
18076;SDS011;9165;45.714;11.362;2023-08-08T07:37:29;1.17;;;0.90;;
18076;SDS011;9165;45.714;11.362;2023-08-08T07:39:55;2.50;;;0.60;;
18076;SDS011;9165;45.714;11.362;2023-08-08T07:42:22;1.77;;;1.17;;
18076;SDS011;9165;45.714;11.362;2023-08-08T07:44:49;1.10;;;0.60;;
18076;SDS011;9165;45.714;11.362;2023-08-08T07:47:15;0.87;;;0.80;;
18076;SDS011;9165;45.714;11.362;2023-08-08T07:49:42;1.20;;;0.90;;
18076;SDS011;9165;45.714;11.362;2023-08-08T07:52:09;0.73;;;0.73;;
18076;SDS011;9165;45.714;11.362;2023-08-08T07:54:37;1.57;;;0.90;;
18076;SDS011;9165;45.714;11.362;2023-08-08T07:57:04;0.73;;;0.70;;
18076;SDS011;9165;45.714;11.362;2023-08-08T07:59:31;1.23;;;0.80;;
18076;SDS011;9165;45.714;11.362;2023-08-08T08:01:58;0.90;;;0.70;;
18076;SDS011;9165;45.714;11.362;2023-08-08T08:04:24;2.37;;;1.23;;
18076;SDS011;9165;45.714;11.362;2023-08-08T08:06:51;0.80;;;0.80;;
18076;SDS011;9165;45.714;11.362;2023-08-08T08:09:18;1.90;;;1.20;;
18076;SDS011;9165;45.714;11.362;2023-08-08T08:11:46;0.67;;;0.67;;
18076;SDS011;9165;45.714;11.362;2023-08-08T08:14:13;1.70;;;1.03;;
18076;SDS011;9165;45.714;11.362;2023-08-08T08:16:40;2.77;;;0.67;;
18076;SDS011;9165;45.714;11.362;2023-08-08T08:19:07;0.67;;;0.67;;
18076;SDS011;9165;45.714;11.362;2023-08-08T08:21:33;5.20;;;2.00;;
18076;SDS011;9165;45.714;11.362;2023-08-08T08:24:00;1.37;;;1.10;;
18076;SDS011;9165;45.714;11.362;2023-08-08T08:26:26;2.47;;;0.87;;
18076;SDS011;9165;45.714;11.362;2023-08-08T08:28:55;1.03;;;0.80;;
18076;SDS011;9165;45.714;11.362;2023-08-08T08:31:21;1.27;;;0.80;;
18076;SDS011;9165;45.714;11.362;2023-08-08T08:33:48;1.13;;;0.80;;
18076;SDS011;9165;45.714;11.362;2023-08-08T08:36:15;1.17;;;0.70;;
18076;SDS011;9165;45.714;11.362;2023-08-08T08:38:42;0.57;;;0.50;;
18076;SDS011;9165;45.714;11.362;2023-08-08T08:41:08;1.67;;;0.57;;
18076;SDS011;9165;45.714;11.362;2023-08-08T08:43:38;2.07;;;0.70;;
18076;SDS011;9165;45.714;11.362;2023-08-08T08:46:07;1.60;;;0.80;;
18076;SDS011;9165;45.714;11.362;2023-08-08T08:48:36;0.80;;;0.77;;
18076;SDS011;9165;45.714;11.362;2023-08-08T08:51:03;1.70;;;0.70;;
18076;SDS011;9165;45.714;11.362;2023-08-08T08:53:30;0.60;;;0.60;;
18076;SDS011;9165;45.714;11.362;2023-08-08T08:56:03;5.00;;;0.77;;
18076;SDS011;9165;45.714;11.362;2023-08-08T08:58:30;0.87;;;0.70;;
18076;SDS011;9165;45.714;11.362;2023-08-08T09:00:57;1.70;;;0.97;;
18076;SDS011;9165;45.714;11.362;2023-08-08T09:03:25;1.53;;;0.80;;
18076;SDS011;9165;45.714;11.362;2023-08-08T09:05:52;2.00;;;0.90;;
18076;SDS011;9165;45.714;11.362;2023-08-08T09:08:20;0.83;;;0.60;;
18076;SDS011;9165;45.714;11.362;2023-08-08T09:10:46;1.70;;;0.60;;
18076;SDS011;9165;45.714;11.362;2023-08-08T09:13:13;1.63;;;1.03;;
18076;SDS011;9165;45.714;11.362;2023-08-08T09:15:40;3.50;;;1.13;;
18076;SDS011;9165;45.714;11.362;2023-08-08T09:18:06;5.87;;;1.20;;
18076;SDS011;9165;45.714;11.362;2023-08-08T09:20:35;0.87;;;0.60;;
18076;SDS011;9165;45.714;11.362;2023-08-08T09:23:01;2.07;;;1.87;;
18076;SDS011;9165;45.714;11.362;2023-08-08T09:25:28;3.90;;;0.97;;
18076;SDS011;9165;45.714;11.362;2023-08-08T09:27:54;1.50;;;1.10;;
18076;SDS011;9165;45.714;11.362;2023-08-08T09:30:21;1.93;;;1.03;;
18076;SDS011;9165;45.714;11.362;2023-08-08T09:32:48;2.13;;;1.00;;
18076;SDS011;9165;45.714;11.362;2023-08-08T09:35:15;1.30;;;1.20;;
18076;SDS011;9165;45.714;11.362;2023-08-08T09:37:45;1.63;;;1.00;;
18076;SDS011;9165;45.714;11.362;2023-08-08T09:40:12;0.87;;;0.87;;
18076;SDS011;9165;45.714;11.362;2023-08-08T09:42:39;1.03;;;0.90;;
18076;SDS011;9165;45.714;11.362;2023-08-08T09:45:07;1.83;;;1.00;;
18076;SDS011;9165;45.714;11.362;2023-08-08T09:47:35;0.77;;;0.70;;
18076;SDS011;9165;45.714;11.362;2023-08-08T09:50:02;0.67;;;0.67;;
18076;SDS011;9165;45.714;11.362;2023-08-08T09:52:30;3.73;;;0.93;;
18076;SDS011;9165;45.714;11.362;2023-08-08T09:54:58;2.60;;;1.03;;
18076;SDS011;9165;45.714;11.362;2023-08-08T09:57:26;1.40;;;1.30;;
18076;SDS011;9165;45.714;11.362;2023-08-08T09:59:52;3.33;;;1.10;;
18076;SDS011;9165;45.714;11.362;2023-08-08T10:02:19;1.00;;;0.77;;
18076;SDS011;9165;45.714;11.362;2023-08-08T10:04:46;1.13;;;0.93;;
18076;SDS011;9165;45.714;11.362;2023-08-08T10:07:13;3.17;;;0.90;;
18076;SDS011;9165;45.714;11.362;2023-08-08T10:09:40;0.70;;;0.70;;
18076;SDS011;9165;45.714;11.362;2023-08-08T10:12:09;1.67;;;1.00;;
18076;SDS011;9165;45.714;11.362;2023-08-08T10:14:37;1.23;;;1.13;;
18076;SDS011;9165;45.714;11.362;2023-08-08T10:17:05;0.93;;;0.83;;
18076;SDS011;9165;45.714;11.362;2023-08-08T10:19:32;1.83;;;1.07;;
18076;SDS011;9165;45.714;11.362;2023-08-08T10:21:58;4.73;;;1.17;;
18076;SDS011;9165;45.714;11.362;2023-08-08T10:24:25;1.57;;;0.67;;
18076;SDS011;9165;45.714;11.362;2023-08-08T10:26:52;2.30;;;1.00;;
18076;SDS011;9165;45.714;11.362;2023-08-08T10:29:20;1.93;;;0.80;;
18076;SDS011;9165;45.714;11.362;2023-08-08T10:31:51;3.53;;;0.93;;
18076;SDS011;9165;45.714;11.362;2023-08-08T10:34:19;2.57;;;0.80;;
18076;SDS011;9165;45.714;11.362;2023-08-08T10:36:49;0.83;;;0.67;;
18076;SDS011;9165;45.714;11.362;2023-08-08T10:39:16;1.57;;;0.80;;
18076;SDS011;9165;45.714;11.362;2023-08-08T10:41:46;1.13;;;0.80;;
18076;SDS011;9165;45.714;11.362;2023-08-08T10:44:13;1.30;;;0.90;;
18076;SDS011;9165;45.714;11.362;2023-08-08T10:46:42;1.73;;;1.00;;
18076;SDS011;9165;45.714;11.362;2023-08-08T10:49:10;1.30;;;0.67;;
18076;SDS011;9165;45.714;11.362;2023-08-08T10:51:39;0.70;;;0.70;;
18076;SDS011;9165;45.714;11.362;2023-08-08T10:54:13;2.23;;;0.97;;
18076;SDS011;9165;45.714;11.362;2023-08-08T10:56:40;0.60;;;0.60;;
18076;SDS011;9165;45.714;11.362;2023-08-08T10:59:14;0.80;;;0.80;;
18076;SDS011;9165;45.714;11.362;2023-08-08T11:01:47;4.67;;;1.00;;
18076;SDS011;9165;45.714;11.362;2023-08-08T11:04:14;0.87;;;0.70;;
18076;SDS011;9165;45.714;11.362;2023-08-08T11:06:41;2.03;;;0.77;;
18076;SDS011;9165;45.714;11.362;2023-08-08T11:09:09;0.83;;;0.80;;
18076;SDS011;9165;45.714;11.362;2023-08-08T11:11:37;1.00;;;0.90;;
18076;SDS011;9165;45.714;11.362;2023-08-08T11:14:10;0.80;;;0.50;;
18076;SDS011;9165;45.714;11.362;2023-08-08T11:16:37;0.73;;;0.73;;
18076;SDS011;9165;45.714;11.362;2023-08-08T11:19:05;1.43;;;1.10;;
18076;SDS011;9165;45.714;11.362;2023-08-08T11:21:33;1.07;;;0.97;;
18076;SDS011;9165;45.714;11.362;2023-08-08T11:24:00;1.40;;;0.90;;
18076;SDS011;9165;45.714;11.362;2023-08-08T11:26:27;1.57;;;0.73;;
18076;SDS011;9165;45.714;11.362;2023-08-08T11:28:56;1.20;;;0.73;;
18076;SDS011;9165;45.714;11.362;2023-08-08T11:31:23;1.63;;;0.83;;
18076;SDS011;9165;45.714;11.362;2023-08-08T11:33:50;0.70;;;0.70;;
18076;SDS011;9165;45.714;11.362;2023-08-08T11:36:19;2.03;;;0.80;;
18076;SDS011;9165;45.714;11.362;2023-08-08T11:38:45;0.87;;;0.70;;
18076;SDS011;9165;45.714;11.362;2023-08-08T11:41:12;2.80;;;1.23;;
18076;SDS011;9165;45.714;11.362;2023-08-08T11:43:40;1.47;;;1.00;;
18076;SDS011;9165;45.714;11.362;2023-08-08T11:46:08;2.28;;;0.90;;
18076;SDS011;9165;45.714;11.362;2023-08-08T11:48:36;2.22;;;0.60;;
18076;SDS011;9165;45.714;11.362;2023-08-08T11:51:03;3.03;;;0.97;;
18076;SDS011;9165;45.714;11.362;2023-08-08T11:53:32;1.77;;;1.00;;
18076;SDS011;9165;45.714;11.362;2023-08-08T11:55:59;0.50;;;0.50;;
18076;SDS011;9165;45.714;11.362;2023-08-08T11:58:28;0.93;;;0.82;;
18076;SDS011;9165;45.714;11.362;2023-08-08T12:00:55;1.70;;;0.90;;
18076;SDS011;9165;45.714;11.362;2023-08-08T12:03:24;2.28;;;0.80;;
18076;SDS011;9165;45.714;11.362;2023-08-08T12:05:51;1.00;;;0.90;;
18076;SDS011;9165;45.714;11.362;2023-08-08T12:08:18;3.10;;;1.02;;
18076;SDS011;9165;45.714;11.362;2023-08-08T12:11:00;1.80;;;1.20;;
18076;SDS011;9165;45.714;11.362;2023-08-08T12:13:30;2.92;;;1.02;;
18076;SDS011;9165;45.714;11.362;2023-08-08T12:16:00;0.85;;;0.80;;
18076;SDS011;9165;45.714;11.362;2023-08-08T12:18:27;1.67;;;1.08;;
18076;SDS011;9165;45.714;11.362;2023-08-08T12:20:56;1.30;;;1.00;;
18076;SDS011;9165;45.714;11.362;2023-08-08T12:23:22;1.85;;;1.10;;
18076;SDS011;9165;45.714;11.362;2023-08-08T12:25:50;1.38;;;1.00;;
18076;SDS011;9165;45.714;11.362;2023-08-08T12:28:18;0.80;;;0.70;;
18076;SDS011;9165;45.714;11.362;2023-08-08T12:30:44;1.98;;;0.80;;
18076;SDS011;9165;45.714;11.362;2023-08-08T12:33:11;0.95;;;0.90;;
18076;SDS011;9165;45.714;11.362;2023-08-08T12:35:37;3.88;;;1.30;;
18076;SDS011;9165;45.714;11.362;2023-08-08T12:38:04;2.55;;;1.73;;
18076;SDS011;9165;45.714;11.362;2023-08-08T12:40:30;6.40;;;1.10;;
18076;SDS011;9165;45.714;11.362;2023-08-08T12:42:58;2.58;;;1.20;;
18076;SDS011;9165;45.714;11.362;2023-08-08T12:45:25;0.90;;;0.70;;
18076;SDS011;9165;45.714;11.362;2023-08-08T12:47:51;1.58;;;0.95;;
18076;SDS011;9165;45.714;11.362;2023-08-08T12:50:18;1.92;;;1.00;;
18076;SDS011;9165;45.714;11.362;2023-08-08T12:52:45;1.40;;;0.90;;
18076;SDS011;9165;45.714;11.362;2023-08-08T12:55:11;1.45;;;1.10;;
18076;SDS011;9165;45.714;11.362;2023-08-08T12:57:40;3.47;;;1.35;;
18076;SDS011;9165;45.714;11.362;2023-08-08T13:00:08;1.15;;;0.90;;
18076;SDS011;9165;45.714;11.362;2023-08-08T13:02:37;1.90;;;0.77;;
18076;SDS011;9165;45.714;11.362;2023-08-08T13:05:04;1.17;;;1.00;;
18076;SDS011;9165;45.714;11.362;2023-08-08T13:07:32;1.92;;;1.25;;
18076;SDS011;9165;45.714;11.362;2023-08-08T13:09:58;1.58;;;0.70;;
18076;SDS011;9165;45.714;11.362;2023-08-08T13:12:25;1.17;;;1.08;;
18076;SDS011;9165;45.714;11.362;2023-08-08T13:14:51;1.88;;;0.88;;
18076;SDS011;9165;45.714;11.362;2023-08-08T13:17:19;2.30;;;1.23;;
18076;SDS011;9165;45.714;11.362;2023-08-08T13:19:46;1.92;;;1.10;;
18076;SDS011;9165;45.714;11.362;2023-08-08T13:22:12;2.55;;;1.20;;
18076;SDS011;9165;45.714;11.362;2023-08-08T13:24:39;3.35;;;0.77;;
18076;SDS011;9165;45.714;11.362;2023-08-08T13:27:05;2.03;;;0.85;;
18076;SDS011;9165;45.714;11.362;2023-08-08T13:29:32;4.40;;;0.90;;
18076;SDS011;9165;45.714;11.362;2023-08-08T13:31:58;3.17;;;2.63;;
18076;SDS011;9165;45.714;11.362;2023-08-08T13:34:26;1.55;;;1.08;;
18076;SDS011;9165;45.714;11.362;2023-08-08T13:36:53;1.13;;;1.02;;
18076;SDS011;9165;45.714;11.362;2023-08-08T13:39:20;3.17;;;0.77;;
18076;SDS011;9165;45.714;11.362;2023-08-08T13:41:46;1.13;;;0.98;;
18076;SDS011;9165;45.714;11.362;2023-08-08T13:44:13;3.97;;;0.98;;
18076;SDS011;9165;45.714;11.362;2023-08-08T13:46:40;3.53;;;1.02;;
18076;SDS011;9165;45.714;11.362;2023-08-08T13:49:06;0.82;;;0.70;;
18076;SDS011;9165;45.714;11.362;2023-08-08T13:51:34;2.25;;;1.90;;
18076;SDS011;9165;45.714;11.362;2023-08-08T13:54:01;3.00;;;1.30;;
18076;SDS011;9165;45.714;11.362;2023-08-08T13:56:27;1.27;;;0.90;;
18076;SDS011;9165;45.714;11.362;2023-08-08T13:58:54;1.00;;;0.93;;
18076;SDS011;9165;45.714;11.362;2023-08-08T14:01:20;1.65;;;1.05;;
18076;SDS011;9165;45.714;11.362;2023-08-08T14:03:48;1.27;;;0.95;;
18076;SDS011;9165;45.714;11.362;2023-08-08T14:06:14;1.55;;;1.45;;
18076;SDS011;9165;45.714;11.362;2023-08-08T14:08:42;1.90;;;1.38;;
18076;SDS011;9165;45.714;11.362;2023-08-08T14:11:10;1.73;;;0.98;;
18076;SDS011;9165;45.714;11.362;2023-08-08T14:13:37;1.83;;;0.80;;
18076;SDS011;9165;45.714;11.362;2023-08-08T14:16:05;0.83;;;0.73;;
18076;SDS011;9165;45.714;11.362;2023-08-08T14:18:31;3.58;;;1.40;;
18076;SDS011;9165;45.714;11.362;2023-08-08T14:20:58;2.00;;;0.97;;
18076;SDS011;9165;45.714;11.362;2023-08-08T14:23:25;0.80;;;0.77;;
18076;SDS011;9165;45.714;11.362;2023-08-08T14:25:53;1.27;;;0.93;;
18076;SDS011;9165;45.714;11.362;2023-08-08T14:28:20;4.77;;;0.67;;
18076;SDS011;9165;45.714;11.362;2023-08-08T14:30:47;6.10;;;0.60;;
18076;SDS011;9165;45.714;11.362;2023-08-08T14:33:14;4.13;;;1.10;;
18076;SDS011;9165;45.714;11.362;2023-08-08T14:35:41;1.43;;;1.20;;
18076;SDS011;9165;45.714;11.362;2023-08-08T14:38:08;2.93;;;1.00;;
18076;SDS011;9165;45.714;11.362;2023-08-08T14:40:34;2.07;;;1.03;;
18076;SDS011;9165;45.714;11.362;2023-08-08T14:43:02;1.10;;;1.00;;
18076;SDS011;9165;45.714;11.362;2023-08-08T14:45:35;1.67;;;0.63;;
18076;SDS011;9165;45.714;11.362;2023-08-08T14:48:03;3.73;;;1.00;;
18076;SDS011;9165;45.714;11.362;2023-08-08T14:50:30;1.20;;;1.10;;